createdAt,value
2016-08-03T00:00:57.245Z,0
2016-08-03T00:01:57.270Z,0
2016-08-03T00:02:57.270Z,0
2016-08-03T00:03:57.306Z,0
2016-08-03T00:04:57.313Z,0
2016-08-03T00:05:57.349Z,0
2016-08-03T00:06:57.365Z,0
2016-08-03T00:07:57.381Z,0
2016-08-03T00:08:57.396Z,0
2016-08-03T00:09:57.428Z,0
2016-08-03T00:10:57.431Z,0
2016-08-03T00:11:57.456Z,0
2016-08-03T00:12:57.480Z,0
2016-08-03T00:13:57.489Z,0
2016-08-03T00:14:57.520Z,0
2016-08-03T00:15:57.546Z,0
2016-08-03T00:16:57.550Z,0
2016-08-03T00:17:57.582Z,0
2016-08-03T00:18:57.601Z,0
2016-08-03T00:19:57.684Z,0
2016-08-03T00:20:57.633Z,0
2016-08-03T00:21:57.673Z,0
2016-08-03T00:22:57.671Z,0
2016-08-03T00:23:57.702Z,0
2016-08-03T00:24:57.705Z,0
2016-08-03T00:25:58.439Z,0
2016-08-03T00:26:57.749Z,0
2016-08-03T00:27:57.774Z,0
2016-08-03T00:28:57.785Z,0
2016-08-03T00:29:57.819Z,0
2016-08-03T00:30:57.820Z,0
2016-08-03T00:31:57.854Z,0
2016-08-03T00:32:57.873Z,0
2016-08-03T00:33:57.884Z,0
2016-08-03T00:34:57.899Z,0
2016-08-03T00:35:57.954Z,0
2016-08-03T00:36:57.957Z,0
2016-08-03T00:37:58.684Z,0
2016-08-03T00:38:57.990Z,0
2016-08-03T00:39:58.004Z,0
2016-08-03T00:40:58.014Z,0
2016-08-03T00:41:58.049Z,0
2016-08-03T00:42:58.058Z,0
2016-08-03T00:43:58.091Z,0
2016-08-03T00:44:58.105Z,0
2016-08-03T00:45:58.122Z,0
2016-08-03T00:46:58.874Z,0
2016-08-03T00:47:58.165Z,0
2016-08-03T00:48:58.167Z,0
2016-08-03T00:49:58.929Z,0
2016-08-03T00:50:58.205Z,0
2016-08-03T00:51:58.251Z,0
2016-08-03T00:52:58.248Z,0
2016-08-03T00:53:58.275Z,0
2016-08-03T00:54:58.291Z,0
2016-08-03T00:55:58.341Z,0
2016-08-03T00:56:58.335Z,0
2016-08-03T00:57:58.355Z,0
2016-08-03T00:58:58.366Z,0
2016-08-03T00:59:58.384Z,0
2016-08-03T01:00:58.413Z,0
2016-08-03T01:01:58.432Z,0
2016-08-03T01:02:58.452Z,0
2016-08-03T01:03:58.488Z,0
2016-08-03T01:04:58.483Z,0
2016-08-03T01:05:58.510Z,0
2016-08-03T01:06:58.524Z,0
2016-08-03T01:07:58.559Z,0
2016-08-03T01:08:58.560Z,0
2016-08-03T01:09:58.587Z,0
2016-08-03T01:10:58.602Z,0
2016-08-03T01:11:58.635Z,0
2016-08-03T01:12:58.658Z,0
2016-08-03T01:13:58.740Z,0
2016-08-03T01:14:58.687Z,0
2016-08-03T01:15:58.712Z,0
2016-08-03T01:16:58.723Z,0
2016-08-03T01:17:58.760Z,0
2016-08-03T01:18:58.756Z,0
2016-08-03T01:19:58.787Z,0
2016-08-03T01:20:58.792Z,0
2016-08-03T01:21:58.822Z,0
2016-08-03T01:22:58.860Z,0
2016-08-03T01:23:58.863Z,0
2016-08-03T01:24:58.894Z,0
2016-08-03T01:25:58.902Z,0
2016-08-03T01:26:58.914Z,0
2016-08-03T01:27:59.655Z,0
2016-08-03T01:28:59.074Z,0
2016-08-03T01:29:58.973Z,0
2016-08-03T01:30:58.989Z,0
2016-08-03T01:31:59.034Z,0
2016-08-03T01:32:59.027Z,0
2016-08-03T01:33:59.061Z,0
2016-08-03T01:34:59.067Z,0
2016-08-03T01:35:59.093Z,0
2016-08-03T01:36:59.110Z,0
2016-08-03T01:37:59.145Z,0
2016-08-03T01:38:59.141Z,0
2016-08-03T01:39:59.190Z,0
2016-08-03T01:40:59.186Z,0
2016-08-03T01:41:59.219Z,0
2016-08-03T01:42:59.220Z,0
2016-08-03T01:44:59.267Z,0
2016-08-03T01:45:59.280Z,0
2016-08-03T01:46:59.296Z,0
2016-08-03T01:47:59.341Z,0
2016-08-03T01:48:59.343Z,0
2016-08-03T01:50:00.083Z,0
2016-08-03T01:50:59.379Z,0
2016-08-03T01:51:59.403Z,0
2016-08-03T01:52:59.425Z,0
2016-08-03T01:54:00.170Z,0
2016-08-03T01:54:59.472Z,0
2016-08-03T01:55:59.483Z,0
2016-08-03T01:56:59.502Z,0
2016-08-03T01:57:59.521Z,0
2016-08-03T01:59:59.557Z,0
2016-08-03T02:00:59.575Z,0
2016-08-03T02:01:59.601Z,0
2016-08-03T02:02:59.629Z,0
2016-08-03T02:03:59.642Z,0
2016-08-03T02:04:59.651Z,0
2016-08-03T02:05:59.678Z,0
2016-08-03T02:06:59.703Z,0
2016-08-03T02:07:59.723Z,0
2016-08-03T02:08:59.729Z,0
2016-08-03T02:09:59.770Z,0
2016-08-03T02:10:59.779Z,0
2016-08-03T02:11:59.816Z,0
2016-08-03T02:12:59.816Z,0
2016-08-03T02:13:59.844Z,0
2016-08-03T02:14:59.847Z,0
2016-08-03T02:15:59.864Z,0
2016-08-03T02:16:59.881Z,0
2016-08-03T02:17:59.908Z,0
2016-08-03T02:18:59.929Z,0
2016-08-03T02:19:59.972Z,0
2016-08-03T02:20:59.960Z,0
2016-08-03T02:21:59.992Z,0
2016-08-03T02:23:00.009Z,0
2016-08-03T02:24:00.036Z,0
2016-08-03T02:25:00.052Z,0
2016-08-03T02:26:00.078Z,0
2016-08-03T02:27:00.095Z,0
2016-08-03T02:28:00.121Z,0
2016-08-03T02:29:00.115Z,0
2016-08-03T02:30:00.153Z,0
2016-08-03T02:31:00.154Z,0
2016-08-03T02:32:00.200Z,0
2016-08-03T02:33:00.207Z,0
2016-08-03T02:34:00.222Z,0
2016-08-03T02:35:00.244Z,0
2016-08-03T02:36:00.275Z,0
2016-08-03T02:37:01.001Z,0
2016-08-03T02:38:01.022Z,0
2016-08-03T02:39:00.320Z,0
2016-08-03T02:40:00.334Z,0
2016-08-03T02:41:00.354Z,0
2016-08-03T02:42:00.383Z,0
2016-08-03T02:43:00.393Z,0
2016-08-03T02:44:00.422Z,0
2016-08-03T02:45:00.437Z,0
2016-08-03T02:46:00.452Z,0
2016-08-03T02:47:00.484Z,0
2016-08-03T02:48:00.498Z,0
2016-08-03T02:49:00.515Z,0
2016-08-03T02:50:00.546Z,0
2016-08-03T02:51:00.544Z,0
2016-08-03T02:52:00.566Z,0
2016-08-03T02:53:00.598Z,0
2016-08-03T02:54:00.618Z,0
2016-08-03T02:55:00.640Z,0
2016-08-03T02:56:00.664Z,0
2016-08-03T02:57:00.674Z,0
2016-08-03T02:58:00.711Z,0
2016-08-03T02:59:00.717Z,0
2016-08-03T03:00:00.722Z,0
2016-08-03T03:01:00.751Z,0
2016-08-03T03:02:00.773Z,0
2016-08-03T03:03:00.784Z,0
2016-08-03T03:04:00.810Z,0
2016-08-03T03:05:00.830Z,0
2016-08-03T03:06:00.847Z,0
2016-08-03T03:07:00.868Z,0
2016-08-03T03:08:00.900Z,0
2016-08-03T03:09:00.902Z,0
2016-08-03T03:10:00.943Z,0
2016-08-03T03:11:00.940Z,0
2016-08-03T03:12:00.970Z,0
2016-08-03T03:13:00.988Z,0
2016-08-03T03:14:01.004Z,0
2016-08-03T03:15:01.025Z,0
2016-08-03T03:16:01.053Z,0
2016-08-03T03:17:01.060Z,0
2016-08-03T03:18:01.076Z,0
2016-08-03T03:19:01.110Z,0
2016-08-03T03:20:01.154Z,0
2016-08-03T03:21:01.151Z,0
2016-08-03T03:22:01.156Z,0
2016-08-03T03:23:01.186Z,0
2016-08-03T03:24:01.204Z,0
2016-08-03T03:25:01.210Z,0
2016-08-03T03:26:01.241Z,0
2016-08-03T03:27:01.253Z,0
2016-08-03T03:28:01.288Z,0
2016-08-03T03:29:01.298Z,0
2016-08-03T03:30:01.331Z,0
2016-08-03T03:31:01.335Z,0
2016-08-03T03:32:01.364Z,0
2016-08-03T03:33:01.385Z,0
2016-08-03T03:34:01.401Z,0
2016-08-03T03:35:01.418Z,0
2016-08-03T03:36:01.437Z,0
2016-08-03T03:37:01.448Z,0
2016-08-03T03:38:01.471Z,0
2016-08-03T03:39:01.500Z,0
2016-08-03T03:40:01.526Z,0
2016-08-03T03:41:01.532Z,0
2016-08-03T03:42:01.572Z,0
2016-08-03T03:43:01.576Z,0
2016-08-03T03:44:01.610Z,0
2016-08-03T03:45:01.617Z,0
2016-08-03T03:46:01.634Z,0
2016-08-03T03:47:01.646Z,0
2016-08-03T03:48:01.676Z,0
2016-08-03T03:49:01.690Z,0
2016-08-03T03:50:01.742Z,0
2016-08-03T03:51:01.730Z,0
2016-08-03T03:52:01.757Z,0
2016-08-03T03:53:01.779Z,0
2016-08-03T03:54:01.818Z,0
2016-08-03T03:55:01.816Z,0
2016-08-03T03:56:01.841Z,0
2016-08-03T03:57:01.848Z,0
2016-08-03T03:58:01.890Z,0
2016-08-03T03:59:01.886Z,0
2016-08-03T04:00:01.913Z,0
2016-08-03T04:01:01.927Z,0
2016-08-03T04:02:01.950Z,0
2016-08-03T04:03:01.965Z,0
2016-08-03T04:04:01.999Z,0
2016-08-03T04:05:02.026Z,0
2016-08-03T04:06:02.037Z,0
2016-08-03T04:07:02.040Z,0
2016-08-03T04:08:02.082Z,0
2016-08-03T04:09:02.089Z,0
2016-08-03T04:10:02.105Z,0
2016-08-03T04:11:02.120Z,0
2016-08-03T04:12:02.151Z,0
2016-08-03T04:13:02.163Z,0
2016-08-03T04:14:02.191Z,0
2016-08-03T04:15:02.212Z,0
2016-08-03T04:16:02.231Z,0
2016-08-03T04:17:02.239Z,0
2016-08-03T04:18:02.292Z,0
2016-08-03T04:19:02.282Z,0
2016-08-03T04:20:02.306Z,5
2016-08-03T04:21:02.324Z,5
2016-08-03T04:22:02.349Z,5
2016-08-03T04:23:02.359Z,5
2016-08-03T04:24:02.369Z,5
2016-08-03T04:25:02.399Z,5
2016-08-03T04:26:02.437Z,5
2016-08-03T04:27:02.436Z,5
2016-08-03T04:28:02.463Z,5
2016-08-03T04:29:02.483Z,5
2016-08-03T04:30:02.509Z,5
2016-08-03T04:31:02.516Z,5
2016-08-03T04:32:02.558Z,5
2016-08-03T04:33:02.557Z,5
2016-08-03T04:34:02.584Z,5
2016-08-03T04:35:02.601Z,10
2016-08-03T04:36:02.626Z,10
2016-08-03T04:37:02.640Z,10
2016-08-03T04:38:02.672Z,10
2016-08-03T04:39:02.681Z,10
2016-08-03T04:40:02.698Z,10
2016-08-03T04:41:02.714Z,10
2016-08-03T04:42:02.751Z,10
2016-08-03T04:43:02.750Z,10
2016-08-03T04:44:02.793Z,10
2016-08-03T04:45:02.784Z,10
2016-08-03T04:46:02.827Z,10
2016-08-03T04:47:02.828Z,10
2016-08-03T04:48:02.857Z,10
2016-08-03T04:49:02.887Z,10
2016-08-03T04:50:02.895Z,10
2016-08-03T04:51:02.909Z,10
2016-08-03T04:52:02.954Z,10
2016-08-03T04:53:02.963Z,10
2016-08-03T04:54:02.984Z,10
2016-08-03T04:55:02.999Z,5
2016-08-03T04:56:03.013Z,5
2016-08-03T04:57:03.028Z,5
2016-08-03T04:58:03.062Z,5
2016-08-03T04:59:03.066Z,5
2016-08-03T05:00:03.131Z,5
2016-08-03T05:01:03.115Z,5
2016-08-03T05:02:03.130Z,5
2016-08-03T05:03:03.157Z,5
2016-08-03T05:04:03.177Z,5
2016-08-03T05:05:03.193Z,5
2016-08-03T05:06:03.234Z,10
2016-08-03T05:07:03.241Z,10
2016-08-03T05:08:03.256Z,10
2016-08-03T05:09:03.276Z,10
2016-08-03T05:10:03.310Z,10
2016-08-03T05:11:03.307Z,10
2016-08-03T05:12:03.335Z,10
2016-08-03T05:13:03.354Z,10
2016-08-03T05:14:03.367Z,10
2016-08-03T05:15:03.466Z,10
2016-08-03T05:16:03.413Z,10
2016-08-03T05:17:03.427Z,15
2016-08-03T05:18:03.447Z,15
2016-08-03T05:19:03.460Z,15
2016-08-03T05:20:03.493Z,15
2016-08-03T05:21:03.507Z,15
2016-08-03T05:22:03.544Z,20
2016-08-03T05:23:03.565Z,20
2016-08-03T05:24:03.582Z,20
2016-08-03T05:25:03.579Z,20
2016-08-03T05:26:03.609Z,20
2016-08-03T05:27:03.625Z,20
2016-08-03T05:28:03.646Z,25
2016-08-03T05:29:03.657Z,25
2016-08-03T05:31:03.697Z,30
2016-08-03T05:32:03.732Z,30
2016-08-03T05:33:03.756Z,30
2016-08-03T05:34:03.759Z,30
2016-08-03T05:35:03.781Z,30
2016-08-03T05:36:03.797Z,25
2016-08-03T05:37:03.814Z,25
2016-08-03T05:38:04.530Z,25
2016-08-03T05:39:03.842Z,20
2016-08-03T05:40:03.869Z,20
2016-08-03T05:41:03.880Z,20
2016-08-03T05:42:03.901Z,20
2016-08-03T05:43:03.929Z,20
2016-08-03T05:44:03.948Z,25
2016-08-03T05:46:03.983Z,30
2016-08-03T05:47:04.006Z,35
2016-08-03T05:48:04.018Z,40
2016-08-03T05:49:04.044Z,40
2016-08-03T05:50:04.056Z,40
2016-08-03T05:51:04.079Z,45
2016-08-03T05:52:04.099Z,45
2016-08-03T05:53:04.114Z,45
2016-08-03T05:54:04.138Z,45
2016-08-03T05:55:04.156Z,45
2016-08-03T05:56:04.178Z,45
2016-08-03T05:57:04.206Z,50
2016-08-03T05:58:04.221Z,50
2016-08-03T05:59:04.240Z,55
2016-08-03T06:00:04.264Z,60
2016-08-03T06:01:04.272Z,60
2016-08-03T06:02:04.286Z,60
2016-08-03T06:03:04.318Z,60
2016-08-03T06:04:04.346Z,60
2016-08-03T06:05:04.349Z,60
2016-08-03T06:06:04.385Z,65
2016-08-03T06:07:04.394Z,65
2016-08-03T06:08:04.414Z,70
2016-08-03T06:09:04.432Z,75
2016-08-03T06:10:04.456Z,80
2016-08-03T06:11:04.473Z,75
2016-08-03T06:12:04.499Z,75
2016-08-03T06:13:04.518Z,70
2016-08-03T06:14:04.529Z,65
2016-08-03T06:15:04.568Z,65
2016-08-03T06:16:04.577Z,70
2016-08-03T06:17:04.587Z,80
2016-08-03T06:18:04.607Z,90
2016-08-03T06:19:04.628Z,90
2016-08-03T06:20:04.645Z,90
2016-08-03T06:21:04.670Z,85
2016-08-03T06:22:04.686Z,80
2016-08-03T06:23:04.715Z,75
2016-08-03T06:24:04.738Z,70
2016-08-03T06:25:04.773Z,70
2016-08-03T06:26:04.769Z,80
2016-08-03T06:27:04.791Z,85
2016-08-03T06:28:04.809Z,95
2016-08-03T06:29:04.837Z,100
2016-08-03T06:30:04.867Z,100
2016-08-03T06:31:04.860Z,100
2016-08-03T06:32:04.892Z,90
2016-08-03T06:33:04.921Z,95
2016-08-03T06:34:04.935Z,95
2016-08-03T06:35:04.951Z,90
2016-08-03T06:36:04.971Z,85
2016-08-03T06:37:04.989Z,85
2016-08-03T06:38:05.754Z,80
2016-08-03T06:39:05.046Z,75
2016-08-03T06:40:05.059Z,75
2016-08-03T06:41:05.076Z,70
2016-08-03T06:42:05.084Z,70
2016-08-03T06:43:05.104Z,70
2016-08-03T06:44:05.142Z,70
2016-08-03T06:45:05.154Z,70
2016-08-03T06:46:05.183Z,70
2016-08-03T06:47:05.205Z,75
2016-08-03T06:48:05.219Z,85
2016-08-03T06:49:05.229Z,100
2016-08-03T06:50:05.266Z,90
2016-08-03T06:51:20.128Z,90
2016-08-03T06:52:05.329Z,90
2016-08-03T06:53:05.319Z,85
2016-08-03T06:54:05.342Z,85
2016-08-03T06:55:05.351Z,90
2016-08-03T06:56:05.381Z,95
2016-08-03T06:57:05.406Z,90
2016-08-03T06:58:05.425Z,95
2016-08-03T06:59:05.435Z,90
2016-08-03T07:00:05.462Z,85
2016-08-03T07:01:05.477Z,85
2016-08-03T07:02:05.508Z,85
2016-08-03T07:03:05.510Z,85
2016-08-03T07:04:05.546Z,90
2016-08-03T07:05:05.558Z,90
2016-08-03T07:06:05.585Z,90
2016-08-03T07:07:05.591Z,95
2016-08-03T07:08:05.627Z,100
2016-08-03T07:09:05.641Z,110
2016-08-03T07:10:05.712Z,120
2016-08-03T07:11:05.686Z,120
2016-08-03T07:12:05.696Z,110
2016-08-03T07:13:05.729Z,100
2016-08-03T07:14:05.736Z,95
2016-08-03T07:15:05.770Z,95
2016-08-03T07:16:05.790Z,100
2016-08-03T07:17:05.816Z,100
2016-08-03T07:18:05.830Z,100
2016-08-03T07:19:05.850Z,90
2016-08-03T07:20:05.875Z,85
2016-08-03T07:21:05.884Z,100
2016-08-03T07:22:05.928Z,120
2016-08-03T07:23:05.929Z,130
2016-08-03T07:24:05.957Z,120
2016-08-03T07:25:05.971Z,110
2016-08-03T07:26:05.992Z,110
2016-08-03T07:27:06.026Z,115
2016-08-03T07:28:06.029Z,120
2016-08-03T07:29:06.058Z,120
2016-08-03T07:30:06.082Z,115
2016-08-03T07:31:06.094Z,110
2016-08-03T07:32:06.117Z,100
2016-08-03T07:33:06.141Z,95
2016-08-03T07:34:06.167Z,90
2016-08-03T07:35:06.171Z,85
2016-08-03T07:36:06.197Z,85
2016-08-03T07:37:06.203Z,85
2016-08-03T07:38:06.240Z,85
2016-08-03T07:39:06.260Z,80
2016-08-03T07:40:06.283Z,80
2016-08-03T07:41:06.301Z,85
2016-08-03T07:42:06.323Z,90
2016-08-03T07:43:06.339Z,90
2016-08-03T07:44:06.368Z,90
2016-08-03T07:45:06.384Z,90
2016-08-03T07:46:06.433Z,90
2016-08-03T07:47:06.427Z,95
2016-08-03T07:48:06.432Z,95
2016-08-03T07:49:06.475Z,100
2016-08-03T07:50:07.225Z,110
2016-08-03T07:51:06.499Z,110
2016-08-03T07:52:06.557Z,110
2016-08-03T07:53:06.546Z,110
2016-08-03T07:54:06.623Z,110
2016-08-03T07:55:06.632Z,105
2016-08-03T07:56:06.629Z,105
2016-08-03T07:57:06.630Z,90
2016-08-03T07:58:06.668Z,85
2016-08-03T07:59:06.661Z,90
2016-08-03T08:00:06.684Z,90
2016-08-03T08:01:06.747Z,95
2016-08-03T08:02:06.769Z,95
2016-08-03T08:03:06.803Z,90
2016-08-03T08:04:06.773Z,90
2016-08-03T08:05:06.851Z,85
2016-08-03T08:06:06.825Z,85
2016-08-03T08:07:06.869Z,80
2016-08-03T08:08:06.856Z,80
2016-08-03T08:09:06.876Z,80
2016-08-03T08:10:06.898Z,75
2016-08-03T08:11:06.918Z,75
2016-08-03T08:12:06.944Z,75
2016-08-03T08:13:06.951Z,70
2016-08-03T08:14:06.984Z,65
2016-08-03T08:15:07.006Z,70
2016-08-03T08:16:07.023Z,70
2016-08-03T08:17:07.048Z,75
2016-08-03T08:18:07.071Z,75
2016-08-03T08:19:07.082Z,75
2016-08-03T08:20:07.110Z,75
2016-08-03T08:21:07.130Z,75
2016-08-03T08:22:07.162Z,75
2016-08-03T08:23:07.164Z,75
2016-08-03T08:24:07.193Z,80
2016-08-03T08:25:07.203Z,85
2016-08-03T08:26:07.232Z,85
2016-08-03T08:27:07.258Z,90
2016-08-03T08:28:07.281Z,95
2016-08-03T08:29:07.313Z,105
2016-08-03T08:30:07.321Z,110
2016-08-03T08:31:07.336Z,115
2016-08-03T08:32:07.372Z,120
2016-08-03T08:33:07.377Z,125
2016-08-03T08:34:07.386Z,125
2016-08-03T08:35:07.411Z,125
2016-08-03T08:36:07.459Z,130
2016-08-03T08:37:07.458Z,140
2016-08-03T08:38:07.479Z,145
2016-08-03T08:39:07.499Z,155
2016-08-03T08:40:07.530Z,155
2016-08-03T08:41:07.537Z,150
2016-08-03T08:42:07.656Z,150
2016-08-03T08:43:07.571Z,155
2016-08-03T08:44:07.615Z,165
2016-08-03T08:45:07.624Z,170
2016-08-03T08:46:07.649Z,175
2016-08-03T08:47:07.662Z,170
2016-08-03T08:48:07.690Z,175
2016-08-03T08:49:07.696Z,185
2016-08-03T08:50:07.745Z,180
2016-08-03T08:51:07.766Z,175
2016-08-03T08:52:07.818Z,170
2016-08-03T08:53:07.799Z,180
2016-08-03T08:54:07.828Z,185
2016-08-03T08:55:07.846Z,175
2016-08-03T08:56:07.863Z,190
2016-08-03T08:57:07.895Z,205
2016-08-03T08:58:07.917Z,215
2016-08-03T08:59:07.938Z,195
2016-08-03T09:00:07.954Z,195
2016-08-03T09:01:07.989Z,185
2016-08-03T09:02:07.991Z,185
2016-08-03T09:03:08.009Z,175
2016-08-03T09:04:08.035Z,175
2016-08-03T09:05:08.048Z,170
2016-08-03T09:06:08.085Z,165
2016-08-03T09:07:08.101Z,175
2016-08-03T09:08:08.125Z,205
2016-08-03T09:09:08.145Z,215
2016-08-03T09:10:08.167Z,210
2016-08-03T09:11:08.241Z,220
2016-08-03T09:12:08.215Z,210
2016-08-03T09:13:08.222Z,220
2016-08-03T09:14:08.247Z,250
2016-08-03T09:15:08.273Z,255
2016-08-03T09:16:08.370Z,235
2016-08-03T09:17:08.323Z,240
2016-08-03T09:18:08.345Z,235
2016-08-03T09:19:08.345Z,245
2016-08-03T09:20:08.379Z,255
2016-08-03T09:21:08.395Z,265
2016-08-03T09:22:08.429Z,235
2016-08-03T09:23:08.449Z,225
2016-08-03T09:24:08.469Z,205
2016-08-03T09:25:08.487Z,200
2016-08-03T09:26:08.511Z,200
2016-08-03T09:27:08.538Z,185
2016-08-03T09:28:08.575Z,155
2016-08-03T09:29:08.588Z,135
2016-08-03T09:30:08.609Z,135
2016-08-03T09:31:08.678Z,135
2016-08-03T09:32:08.652Z,145
2016-08-03T09:33:08.822Z,160
2016-08-03T09:34:08.698Z,175
2016-08-03T09:35:08.720Z,200
2016-08-03T09:36:08.744Z,210
2016-08-03T09:37:08.754Z,215
2016-08-03T09:38:08.791Z,215
2016-08-03T09:39:08.824Z,200
2016-08-03T09:40:08.819Z,210
2016-08-03T09:41:08.841Z,205
2016-08-03T09:42:08.866Z,200
2016-08-03T09:43:08.905Z,185
2016-08-03T09:44:08.903Z,180
2016-08-03T09:45:08.928Z,175
2016-08-03T09:46:09.029Z,135
2016-08-03T09:47:08.983Z,110
2016-08-03T09:48:09.001Z,95
2016-08-03T09:49:09.010Z,100
2016-08-03T09:50:09.040Z,110
2016-08-03T09:51:09.057Z,115
2016-08-03T09:52:09.125Z,110
2016-08-03T09:53:09.113Z,95
2016-08-03T09:54:09.135Z,100
2016-08-03T09:55:09.157Z,100
2016-08-03T09:56:09.176Z,100
2016-08-03T09:57:09.190Z,100
2016-08-03T09:58:09.256Z,110
2016-08-03T09:59:09.244Z,115
2016-08-03T10:00:09.257Z,120
2016-08-03T10:02:09.314Z,115
2016-08-03T10:03:09.320Z,125
2016-08-03T10:04:09.355Z,125
2016-08-03T10:05:09.373Z,125
2016-08-03T10:06:09.401Z,140
2016-08-03T10:07:09.407Z,145
2016-08-03T10:08:09.431Z,135
2016-08-03T10:09:09.490Z,155
2016-08-03T10:10:09.516Z,165
2016-08-03T10:11:09.490Z,140
2016-08-03T10:12:09.587Z,160
2016-08-03T10:13:09.541Z,180
2016-08-03T10:14:09.552Z,180
2016-08-03T10:15:09.577Z,185
2016-08-03T10:16:09.609Z,190
2016-08-03T10:17:09.621Z,200
2016-08-03T10:18:09.662Z,210
2016-08-03T10:19:09.660Z,215
2016-08-03T10:20:09.705Z,210
2016-08-03T10:21:09.709Z,210
2016-08-03T10:22:09.728Z,210
2016-08-03T10:23:09.758Z,200
2016-08-03T10:24:09.778Z,195
2016-08-03T10:25:09.801Z,190
2016-08-03T10:26:09.824Z,175
2016-08-03T10:27:09.841Z,160
2016-08-03T10:28:09.866Z,155
2016-08-03T10:29:09.888Z,145
2016-08-03T10:30:09.907Z,135
2016-08-03T10:31:09.923Z,135
2016-08-03T10:32:09.954Z,135
2016-08-03T10:33:09.982Z,125
2016-08-03T10:34:10.001Z,115
2016-08-03T10:35:10.014Z,130
2016-08-03T10:36:10.035Z,140
2016-08-03T10:37:10.066Z,165
2016-08-03T10:38:10.078Z,185
2016-08-03T10:39:10.106Z,190
2016-08-03T10:40:10.123Z,190
2016-08-03T10:41:10.915Z,190
2016-08-03T10:42:10.158Z,185
2016-08-03T10:43:10.190Z,170
2016-08-03T10:44:10.207Z,145
2016-08-03T10:45:10.238Z,140
2016-08-03T10:46:10.260Z,140
2016-08-03T10:47:10.270Z,135
2016-08-03T10:48:10.300Z,140
2016-08-03T10:49:10.330Z,130
2016-08-03T10:50:10.346Z,120
2016-08-03T10:51:10.367Z,115
2016-08-03T10:52:10.399Z,100
2016-08-03T10:53:10.430Z,95
2016-08-03T10:54:10.430Z,95
2016-08-03T10:55:10.472Z,95
2016-08-03T10:56:10.469Z,95
2016-08-03T10:57:10.498Z,100
2016-08-03T10:58:10.512Z,110
2016-08-03T10:59:10.530Z,115
2016-08-03T11:00:10.588Z,115
2016-08-03T11:01:10.579Z,120
2016-08-03T11:02:10.605Z,130
2016-08-03T11:03:10.614Z,130
2016-08-03T11:04:10.656Z,120
2016-08-03T11:05:10.657Z,115
2016-08-03T11:06:10.695Z,115
2016-08-03T11:07:10.701Z,115
2016-08-03T11:08:10.746Z,130
2016-08-03T11:09:10.754Z,140
2016-08-03T11:10:10.799Z,135
2016-08-03T11:11:10.795Z,125
2016-08-03T11:12:10.838Z,130
2016-08-03T11:13:10.841Z,130
2016-08-03T11:14:10.863Z,125
2016-08-03T11:15:10.914Z,110
2016-08-03T11:16:10.907Z,105
2016-08-03T11:17:10.928Z,100
2016-08-03T11:18:10.977Z,100
2016-08-03T11:19:10.978Z,105
2016-08-03T11:20:10.998Z,100
2016-08-03T11:21:11.058Z,95
2016-08-03T11:22:11.039Z,95
2016-08-03T11:23:11.053Z,95
2016-08-03T11:24:11.092Z,95
2016-08-03T11:25:11.094Z,90
2016-08-03T11:26:11.145Z,80
2016-08-03T11:27:11.147Z,85
2016-08-03T11:28:11.170Z,95
2016-08-03T11:29:11.183Z,100
2016-08-03T11:30:11.210Z,105
2016-08-03T11:31:11.230Z,105
2016-08-03T11:32:11.252Z,105
2016-08-03T11:33:12.003Z,105
2016-08-03T11:34:11.338Z,105
2016-08-03T11:35:11.314Z,115
2016-08-03T11:36:11.339Z,130
2016-08-03T11:37:11.354Z,130
2016-08-03T11:38:11.385Z,130
2016-08-03T11:39:11.397Z,125
2016-08-03T11:40:11.430Z,120
2016-08-03T11:41:11.444Z,120
2016-08-03T11:42:11.476Z,110
2016-08-03T11:43:11.489Z,105
2016-08-03T11:44:11.494Z,100
2016-08-03T11:45:11.535Z,95
2016-08-03T11:46:11.545Z,95
2016-08-03T11:47:11.575Z,85
2016-08-03T11:48:11.601Z,75
2016-08-03T11:49:11.622Z,75
2016-08-03T11:50:11.648Z,75
2016-08-03T11:51:11.655Z,75
2016-08-03T11:52:11.688Z,70
2016-08-03T11:53:11.692Z,65
2016-08-03T11:54:12.460Z,60
2016-08-03T11:55:11.737Z,60
2016-08-03T11:56:11.779Z,65
2016-08-03T11:57:11.782Z,70
2016-08-03T11:58:11.821Z,65
2016-08-03T11:59:11.832Z,60
2016-08-03T12:00:11.859Z,60
2016-08-03T12:01:11.875Z,60
2016-08-03T12:02:11.900Z,60
2016-08-03T12:03:11.923Z,60
2016-08-03T12:04:11.939Z,60
2016-08-03T12:05:11.966Z,60
2016-08-03T12:06:11.985Z,55
2016-08-03T12:07:12.001Z,55
2016-08-03T12:08:12.027Z,60
2016-08-03T12:09:12.045Z,60
2016-08-03T12:10:12.078Z,60
2016-08-03T12:11:12.082Z,65
2016-08-03T12:12:12.830Z,75
2016-08-03T12:13:12.138Z,80
2016-08-03T12:14:12.170Z,80
2016-08-03T12:15:12.171Z,80
2016-08-03T12:16:12.192Z,75
2016-08-03T12:17:12.231Z,75
2016-08-03T12:18:12.236Z,75
2016-08-03T12:19:12.262Z,75
2016-08-03T12:20:12.277Z,75
2016-08-03T12:21:12.304Z,70
2016-08-03T12:22:12.333Z,70
2016-08-03T12:23:12.350Z,65
2016-08-03T12:24:12.363Z,55
2016-08-03T12:25:12.385Z,50
2016-08-03T12:26:12.418Z,55
2016-08-03T12:27:12.442Z,60
2016-08-03T12:28:12.444Z,75
2016-08-03T12:29:12.479Z,80
2016-08-03T12:30:12.493Z,85
2016-08-03T12:31:12.525Z,90
2016-08-03T12:32:12.542Z,100
2016-08-03T12:33:12.573Z,105
2016-08-03T12:34:12.576Z,100
2016-08-03T12:35:12.605Z,100
2016-08-03T12:36:12.619Z,115
2016-08-03T12:37:12.648Z,125
2016-08-03T12:38:12.669Z,125
2016-08-03T12:39:12.684Z,115
2016-08-03T12:40:12.699Z,120
2016-08-03T12:41:12.726Z,120
2016-08-03T12:42:12.759Z,125
2016-08-03T12:43:12.767Z,130
2016-08-03T12:44:12.809Z,135
2016-08-03T12:45:12.810Z,130
2016-08-03T12:46:12.865Z,125
2016-08-03T12:47:12.869Z,115
2016-08-03T12:48:12.885Z,115
2016-08-03T12:49:12.899Z,115
2016-08-03T12:50:12.920Z,105
2016-08-03T12:51:12.951Z,100
2016-08-03T12:52:12.961Z,90
2016-08-03T12:53:13.028Z,90
2016-08-03T12:54:13.028Z,80
2016-08-03T12:55:13.099Z,75
2016-08-03T12:56:13.100Z,75
2016-08-03T12:57:13.082Z,75
2016-08-03T12:58:13.095Z,80
2016-08-03T12:59:13.112Z,85
2016-08-03T13:00:13.150Z,90
2016-08-03T13:01:13.204Z,100
2016-08-03T13:02:13.188Z,105
2016-08-03T13:03:13.195Z,105
2016-08-03T13:04:13.239Z,110
2016-08-03T13:05:13.243Z,125
2016-08-03T13:06:13.281Z,135
2016-08-03T13:07:13.286Z,135
2016-08-03T13:08:14.030Z,135
2016-08-03T13:09:13.339Z,140
2016-08-03T13:10:13.356Z,140
2016-08-03T13:11:13.376Z,135
2016-08-03T13:12:13.400Z,140
2016-08-03T13:13:13.407Z,145
2016-08-03T13:14:13.442Z,150
2016-08-03T13:15:13.460Z,150
2016-08-03T13:16:13.485Z,145
2016-08-03T13:17:13.511Z,140
2016-08-03T13:18:13.530Z,135
2016-08-03T13:19:13.564Z,135
2016-08-03T13:20:13.577Z,135
2016-08-03T13:21:13.607Z,135
2016-08-03T13:22:13.606Z,135
2016-08-03T13:23:13.633Z,130
2016-08-03T13:24:13.688Z,135
2016-08-03T13:25:13.719Z,130
2016-08-03T13:26:13.727Z,125
2016-08-03T13:27:13.718Z,120
2016-08-03T13:28:13.765Z,120
2016-08-03T13:29:13.798Z,115
2016-08-03T13:30:13.836Z,115
2016-08-03T13:31:13.833Z,115
2016-08-03T13:32:13.886Z,115
2016-08-03T13:33:13.878Z,115
2016-08-03T13:34:13.897Z,115
2016-08-03T13:35:13.892Z,120
2016-08-03T13:36:13.929Z,120
2016-08-03T13:37:13.932Z,115
2016-08-03T13:38:14.678Z,115
2016-08-03T13:39:13.984Z,115
2016-08-03T13:40:14.014Z,120
2016-08-03T13:41:14.019Z,140
2016-08-03T13:42:14.042Z,140
2016-08-03T13:43:14.067Z,140
2016-08-03T13:44:14.080Z,135
2016-08-03T13:45:14.118Z,110
2016-08-03T13:46:14.128Z,95
2016-08-03T13:47:14.142Z,90
2016-08-03T13:48:14.179Z,85
2016-08-03T13:49:14.195Z,85
2016-08-03T13:50:14.228Z,90
2016-08-03T13:51:14.235Z,95
2016-08-03T13:52:14.268Z,85
2016-08-03T13:53:14.286Z,85
2016-08-03T13:54:14.311Z,85
2016-08-03T13:55:14.328Z,85
2016-08-03T13:56:14.355Z,85
2016-08-03T13:57:14.369Z,85
2016-08-03T13:58:14.397Z,90
2016-08-03T13:59:14.422Z,90
2016-08-03T14:00:14.434Z,95
2016-08-03T14:01:14.455Z,110
2016-08-03T14:02:14.491Z,115
2016-08-03T14:03:14.496Z,95
2016-08-03T14:04:14.526Z,75
2016-08-03T14:05:14.547Z,75
2016-08-03T14:06:14.576Z,75
2016-08-03T14:07:14.583Z,75
2016-08-03T14:08:14.625Z,75
2016-08-03T14:09:14.631Z,75
2016-08-03T14:10:14.662Z,80
2016-08-03T14:11:14.688Z,75
2016-08-03T14:12:14.701Z,70
2016-08-03T14:13:14.735Z,70
2016-08-03T14:14:14.743Z,65
2016-08-03T14:15:14.755Z,70
2016-08-03T14:16:14.776Z,65
2016-08-03T14:17:14.794Z,55
2016-08-03T14:18:14.826Z,55
2016-08-03T14:19:14.845Z,60
2016-08-03T14:20:14.880Z,60
2016-08-03T14:21:14.896Z,70